Time;durP1;ratioP1;P1;durP2;ratioP2;P2;SDS_P1;SDS_P2;PMS_P1;PMS_P2;Temp;Humidity;BMP_temperature;BMP_pressure;BME280_temperature;BME280_humidity;BME280_pressure;Samples;Min_cycle;Max_cycle;Signal;HPM_P1;HPM_P2
2022/12/13 00:01:49;;;;;;;14.53;9.68;;;;;;;-0.76;87.59;98217.11;1741960;82;21019;-39
2022/12/13 00:04:16;;;;;;;15.93;9.93;;;;;;;-0.84;87.72;98230.64;1742012;82;20995;-42
2022/12/13 00:06:42;;;;;;;18.35;11.05;;;;;;;-0.82;87.87;98232.31;1742220;81;21501;-42
2022/12/13 00:09:09;;;;;;;16.52;9.65;;;;;;;-0.80;87.74;98230.95;1742081;82;21026;-42
2022/12/13 00:11:35;;;;;;;17.85;10.63;;;;;;;-0.78;87.56;98230.05;1742089;82;21031;-42
2022/12/13 00:14:01;;;;;;;19.15;10.00;;;;;;;-0.86;87.55;98228.09;1742101;82;21505;-42
2022/12/13 00:16:27;;;;;;;16.90;10.65;;;;;;;-0.97;87.79;98237.41;1742054;82;21035;-39
2022/12/13 00:18:58;;;;;;;17.60;10.08;;;;;;;-0.90;87.75;98239.39;1742013;82;20995;-46
2022/12/13 00:21:29;;;;;;;16.67;10.53;;;;;;;-0.85;87.79;98247.87;1742033;82;21034;-42
2022/12/13 00:23:56;;;;;;;14.23;10.20;;;;;;;-0.92;87.85;98239.88;1741398;81;21034;-39
2022/12/13 00:26:24;;;;;;;;;;;;;;;-0.93;87.78;98243.34;1744633;82;20984;-38
2022/12/13 00:28:51;;;;;;;18.35;11.50;;;;;;;-0.94;87.94;98241.66;1741997;82;20115;-43
2022/12/13 00:31:21;;;;;;;15.63;10.60;;;;;;;-0.99;88.03;98248.67;1742200;82;20991;-47
2022/12/13 00:33:47;;;;;;;18.65;10.60;;;;;;;-0.99;87.81;98253.38;1742055;82;20991;-41
2022/12/13 00:36:14;;;;;;;15.30;10.78;;;;;;;-0.98;87.84;98247.80;1742144;82;21131;-43
2022/12/13 00:38:40;;;;;;;15.90;10.85;;;;;;;-0.97;87.92;98255.92;1741981;82;20983;-42
2022/12/13 00:41:16;;;;;;;17.05;10.65;;;;;;;-1.00;87.59;98249.54;1742094;82;20988;-41
2022/12/13 00:43:43;;;;;;;16.42;10.82;;;;;;;-1.04;87.75;98250.06;1741449;82;21480;-42
2022/12/13 00:46:18;;;;;;;16.87;11.15;;;;;;;-1.05;87.66;98247.55;1742132;81;21030;-39
2022/12/13 00:48:50;;;;;;;15.78;10.32;;;;;;;-1.06;87.81;98247.13;1744816;81;21023;-37
2022/12/13 00:51:17;;;;;;;16.42;10.60;;;;;;;-1.10;87.87;98245.52;1745587;82;21047;-39
2022/12/13 00:53:43;;;;;;;16.62;10.98;;;;;;;-1.20;88.14;98256.06;1746626;82;20996;-44
2022/12/13 00:56:18;;;;;;;16.40;10.18;;;;;;;-1.22;88.08;98255.27;1746488;82;21465;-39
2022/12/13 00:58:44;;;;;;;14.73;10.18;;;;;;;-1.17;88.09;98259.00;1746674;82;20983;-44
2022/12/13 01:01:12;;;;;;;17.87;10.60;;;;;;;-1.03;87.82;98257.38;1746386;81;20968;-39
2022/12/13 01:03:39;;;;;;;14.18;10.18;;;;;;;-1.11;87.90;98264.03;1746385;82;21460;-41
2022/12/13 01:06:20;;;;;;;18.27;11.10;;;;;;;-1.11;87.84;98264.03;1746623;82;21020;-38
2022/12/13 01:08:47;;;;;;;14.85;10.75;;;;;;;-1.18;87.74;98262.03;1746452;82;21835;-40
2022/12/13 01:11:14;;;;;;;18.40;10.40;;;;;;;-1.16;87.93;98265.41;1746580;82;20999;-44
2022/12/13 01:13:41;;;;;;;17.92;11.38;;;;;;;-1.09;87.79;98255.80;1746691;82;21031;-41
2022/12/13 01:16:10;;;;;;;19.00;10.63;;;;;;;-1.09;87.61;98258.38;1746720;81;21031;-38
2022/12/13 01:18:37;;;;;;;17.90;11.18;;;;;;;-1.16;87.60;98262.84;1746431;82;20992;-36
2022/12/13 01:21:14;;;;;;;17.35;11.03;;;;;;;-1.16;87.54;98257.67;1746555;82;20968;-40
2022/12/13 01:23:41;;;;;;;17.37;10.28;;;;;;;-1.14;87.57;98260.67;1746335;82;21453;-41
2022/12/13 01:26:15;;;;;;;15.58;10.25;;;;;;;-1.23;87.68;98255.30;1746420;82;20979;-43
2022/12/13 01:28:41;;;;;;;15.00;10.32;;;;;;;-1.13;87.65;98257.19;1746529;82;20991;-40
2022/12/13 01:31:11;;;;;;;15.72;9.60;;;;;;;-1.18;87.51;98260.73;1746421;82;20979;-42
2022/12/13 01:33:38;;;;;;;17.42;10.95;;;;;;;-1.20;87.42;98262.52;1746428;82;20995;-40
2022/12/13 01:36:08;;;;;;;14.98;10.88;;;;;;;-1.18;87.17;98258.16;1746600;82;20999;-45
2022/12/13 01:38:35;;;;;;;17.30;10.82;;;;;;;-1.39;87.48;98263.37;1746451;82;21007;-42
2022/12/13 01:41:01;;;;;;;15.80;9.78;;;;;;;-1.28;87.46;98259.70;1746274;82;21651;-43
2022/12/13 01:43:45;;;;;;;16.48;11.15;;;;;;;-1.29;87.48;98259.29;1746303;82;20967;-40
2022/12/13 01:46:13;;;;;;;17.77;10.98;;;;;;;-1.30;87.34;98269.22;1746507;82;21015;-41
2022/12/13 01:49:05;;;;;;;13.43;10.60;;;;;;;-1.23;87.25;98265.61;1749199;82;21019;-41
2022/12/13 01:51:38;;;;;;;16.42;11.25;;;;;;;-1.30;87.22;98264.90;1751972;81;20952;-41
2022/12/13 01:54:09;;;;;;;15.35;9.95;;;;;;;-1.32;87.22;98272.28;1752099;82;21022;-43
2022/12/13 01:56:43;;;;;;;16.93;10.40;;;;;;;-1.36;87.62;98272.80;1724491;82;20968;-43
2022/12/13 01:59:11;;;;;;;14.53;8.90;;;;;;;-1.32;87.22;98278.28;1751992;82;21575;-43
2022/12/13 02:01:38;;;;;;;14.80;9.93;;;;;;;-1.31;86.98;98278.70;1751948;82;20979;-41
2022/12/13 02:04:04;;;;;;;14.47;9.43;;;;;;;-1.37;87.08;98274.50;1752301;82;21046;-41
2022/12/13 02:06:40;;;;;;;14.00;9.60;;;;;;;-1.44;87.07;98279.84;1751935;81;20960;-39
2022/12/13 02:09:07;;;;;;;14.87;10.00;;;;;;;-1.52;87.16;98282.61;1751968;82;20967;-41
2022/12/13 02:11:37;;;;;;;14.50;9.40;;;;;;;-1.45;87.17;98278.17;1752069;82;20995;-43
2022/12/13 02:14:04;;;;;;;14.38;9.83;;;;;;;-1.46;86.95;98277.75;1752061;81;21579;-42
2022/12/13 02:16:49;;;;;;;12.43;9.53;;;;;;;-1.70;87.30;98286.89;1752211;82;20984;-41
2022/12/13 02:19:48;;;;;;;14.90;9.90;;;;;;;-1.61;87.35;98287.52;1751960;82;21504;-39
2022/12/13 02:22:58;;;;;;;13.58;9.48;;;;;;;-1.62;87.26;98283.69;1751930;81;20995;-44
2022/12/13 02:25:53;;;;;;;13.22;9.65;;;;;;;-1.57;86.88;98276.25;1741120;82;21009;-37
2022/12/13 02:29:03;;;;;;;13.48;9.45;;;;;;;-1.61;87.08;98278.50;1750018;82;21361;-42
2022/12/13 02:31:46;;;;;;;11.18;8.63;;;;;;;-1.58;87.12;98282.31;1752061;81;20988;-41
2022/12/13 02:34:23;;;;;;;13.05;9.55;;;;;;;-1.68;86.69;98296.27;1751816;82;20987;-41
2022/12/13 02:37:04;;;;;;;12.30;9.10;;;;;;;-1.66;86.88;98288.52;1752097;82;21175;-40
2022/12/13 02:39:34;;;;;;;12.98;8.83;;;;;;;-1.64;86.85;98291.45;1751813;82;21513;-40
2022/12/13 02:42:08;;;;;;;13.43;9.60;;;;;;;-1.69;86.63;98294.59;1755143;78;21595;-37
2022/12/13 02:44:56;;;;;;;15.88;9.43;;;;;;;-1.70;86.53;98290.31;1744379;82;21087;-43
2022/12/13 02:47:25;;;;;;;12.95;8.75;;;;;;;-1.68;86.63;98298.02;1719218;82;21000;-37
2022/12/13 02:49:58;;;;;;;12.45;8.43;;;;;;;-1.68;86.45;98301.87;1738827;82;21591;-38
2022/12/13 02:52:27;;;;;;;11.48;8.20;;;;;;;-1.64;86.35;98310.78;1739166;81;20999;-40
2022/12/13 02:54:54;;;;;;;11.70;8.45;;;;;;;-1.63;86.34;98306.50;1738810;82;20988;-43
2022/12/13 02:57:34;;;;;;;;;;;;;;;-1.63;86.14;98303.47;1741204;82;20995;-42
2022/12/13 03:00:11;;;;;;;10.28;7.90;;;;;;;-1.65;86.53;98298.80;1739208;82;20107;-41
2022/12/13 03:03:20;;;;;;;12.85;8.90;;;;;;;-1.66;86.82;98305.27;1739109;82;21029;-40
2022/12/13 03:06:41;;;;;;;12.50;8.00;;;;;;;-1.62;86.83;98306.89;1733323;81;21468;-38
2022/12/13 03:09:40;;;;;;;11.95;6.95;;;;;;;-1.62;86.83;98305.18;1738690;82;21025;-40
2022/12/13 03:15:43;;;;;;;13.50;7.85;;;;;;;-1.67;86.80;98304.43;1739086;82;20980;-37
2022/12/13 03:18:17;;;;;;;12.78;7.85;;;;;;;-1.68;86.45;98317.34;1739406;81;20960;-41
2022/12/13 03:20:51;;;;;;;9.65;6.97;;;;;;;-1.71;86.18;98309.25;1739327;82;21016;-36
2022/12/13 03:23:19;;;;;;;10.38;7.58;;;;;;;-1.76;85.95;98310.63;1738047;82;20972;-38
2022/12/13 03:25:49;;;;;;;14.35;7.83;;;;;;;-1.83;86.06;98315.95;1738946;81;21004;-39
2022/12/13 03:28:15;;;;;;;10.85;8.15;;;;;;;-1.79;86.06;98312.42;1739477;82;20999;-36
2022/12/13 03:30:41;;;;;;;12.13;7.00;;;;;;;-1.79;86.06;98312.42;1739094;82;20968;-36
2022/12/13 03:33:06;;;;;;;7.85;6.60;;;;;;;-1.78;86.35;98316.70;1738857;82;21496;-40
2022/12/13 03:35:33;;;;;;;12.03;8.13;;;;;;;-1.90;86.45;98311.35;1738880;81;21464;-42
2022/12/13 03:38:00;;;;;;;11.97;7.78;;;;;;;-1.85;86.14;98316.42;1740073;81;21042;-38
2022/12/13 03:40:28;;;;;;;9.73;7.40;;;;;;;-1.90;86.06;98315.66;1739055;82;21015;-40
2022/12/13 03:42:55;;;;;;;10.00;6.90;;;;;;;-2.03;86.13;98319.77;1738754;81;21063;-40
2022/12/13 03:45:21;;;;;;;9.80;6.78;;;;;;;-2.04;86.20;98309.49;1718243;82;21031;-40
2022/12/13 03:47:46;;;;;;;9.80;7.90;;;;;;;-2.00;86.24;98318.84;1739044;82;20968;-39
2022/12/13 03:50:12;;;;;;;9.63;6.75;;;;;;;-2.05;86.18;98309.10;1739110;82;21477;-39
2022/12/13 03:52:38;;;;;;;9.78;7.10;;;;;;;-2.04;86.31;98315.48;1738996;82;21567;-37
2022/12/13 03:55:04;;;;;;;9.90;7.20;;;;;;;-2.02;86.12;98315.04;1739007;82;21515;-38
2022/12/13 03:57:30;;;;;;;10.50;6.85;;;;;;;-1.94;85.88;98317.45;1739036;81;21007;-40
2022/12/13 03:59:56;;;;;;;9.88;6.65;;;;;;;-1.92;85.57;98312.27;1738978;82;21007;-40
2022/12/13 04:02:22;;;;;;;10.00;6.45;;;;;;;-1.89;85.34;98316.92;1738929;82;21007;-41
2022/12/13 04:04:47;;;;;;;8.28;5.95;;;;;;;-1.98;84.70;98306.36;1739083;81;21489;-42
2022/12/13 04:07:13;;;;;;;9.20;6.03;;;;;;;-1.91;84.71;98310.96;1738881;82;21027;-39
2022/12/13 04:09:39;;;;;;;10.18;6.25;;;;;;;-1.96;84.53;98318.77;1747299;82;21124;-40
2022/12/13 04:14:49;;;;;;;11.33;6.33;;;;;;;-1.90;84.32;98320.38;1745235;81;20987;-37
2022/12/13 04:17:15;;;;;;;12.10;6.28;;;;;;;-2.00;83.69;98330.03;1739005;81;20988;-37
2022/12/13 04:19:40;;;;;;;6.90;5.22;;;;;;;-2.00;83.64;98329.16;1738713;82;21133;-39
2022/12/13 04:22:06;;;;;;;13.03;6.47;;;;;;;-2.06;83.61;98330.58;1739117;82;20991;-38
2022/12/13 04:24:32;;;;;;;8.08;6.10;;;;;;;-2.05;83.13;98325.40;1738887;82;20990;-39
2022/12/13 04:27:00;;;;;;;13.05;7.65;;;;;;;-2.09;82.79;98329.34;1738904;82;21002;-40
2022/12/13 04:29:25;;;;;;;10.43;6.67;;;;;;;-2.05;82.93;98336.99;1739160;82;20979;-40
2022/12/13 04:31:51;;;;;;;12.55;7.37;;;;;;;-2.14;82.47;98332.86;1739455;82;21476;-38
2022/12/13 04:34:17;;;;;;;7.85;5.35;;;;;;;-2.15;82.58;98334.17;1738796;82;20991;-42
2022/12/13 04:36:43;;;;;;;8.10;5.40;;;;;;;-2.10;82.64;98341.38;1738965;82;21063;-41
2022/12/13 04:39:08;;;;;;;8.38;5.62;;;;;;;-2.19;82.37;98330.81;1739015;82;21627;-44
2022/12/13 04:41:37;;;;;;;5.85;4.80;;;;;;;-2.12;82.68;98328.97;1738968;82;21480;-38
2022/12/13 04:44:05;;;;;;;8.23;5.87;;;;;;;-2.14;82.31;98334.59;1739556;81;21003;-39
2022/12/13 04:46:31;;;;;;;9.48;6.10;;;;;;;-2.20;82.55;98332.99;1738895;82;21003;-40
2022/12/13 04:48:56;;;;;;;14.33;6.15;;;;;;;-2.13;83.12;98338.86;1738892;81;21008;-39
2022/12/13 04:51:22;;;;;;;10.85;6.20;;;;;;;-2.10;82.97;98337.97;1739280;81;21004;-40
2022/12/13 04:53:49;;;;;;;6.08;5.25;;;;;;;-2.13;82.93;98334.98;1739142;82;21003;-42
2022/12/13 04:56:15;;;;;;;6.40;5.47;;;;;;;-2.04;83.09;98342.53;1740028;81;21040;-42
2022/12/13 04:58:41;;;;;;;7.72;6.00;;;;;;;-2.09;83.18;98343.09;1738899;82;20968;-40
2022/12/13 05:01:08;;;;;;;11.40;7.22;;;;;;;-2.06;83.28;98343.01;1739197;81;21027;-38
2022/12/13 05:03:34;;;;;;;9.53;6.92;;;;;;;-2.11;83.13;98353.87;1739248;82;20995;-37
2022/12/13 05:06:10;;;;;;;8.05;5.70;;;;;;;-2.15;83.27;98351.79;1739236;82;21457;-41
2022/12/13 05:08:37;;;;;;;7.30;6.05;;;;;;;-2.17;83.47;98353.52;1739041;81;20999;-37
2022/12/13 05:11:07;;;;;;;9.88;7.58;;;;;;;-2.14;83.71;98359.07;1738931;82;21448;-38
2022/12/13 05:13:34;;;;;;;10.28;7.50;;;;;;;-2.40;83.37;98348.81;1742212;81;21083;-40
2022/12/13 05:16:05;;;;;;;10.88;7.95;;;;;;;-2.30;83.07;98355.08;1739622;82;21498;-38
2022/12/13 05:18:31;;;;;;;10.88;7.80;;;;;;;-2.34;82.88;98362.86;1739476;82;21457;-39
2022/12/13 05:21:04;;;;;;;9.85;6.70;;;;;;;-2.44;82.23;98348.44;1738925;82;20999;-39
2022/12/13 05:23:31;;;;;;;14.68;10.23;;;;;;;-2.40;82.15;98362.11;1738399;82;21042;-40
2022/12/13 05:25:57;;;;;;;7.78;6.00;;;;;;;-2.47;81.95;98362.67;1738517;82;20987;-42
2022/12/13 05:28:27;;;;;;;6.80;5.90;;;;;;;-2.47;81.98;98366.53;1739169;82;21002;-42
2022/12/13 05:30:57;;;;;;;9.48;7.33;;;;;;;-2.50;81.71;98365.30;1738999;81;21160;-48
2022/12/13 05:33:24;;;;;;;9.70;6.62;;;;;;;-2.54;81.42;98369.64;1738936;82;21517;-38
2022/12/13 05:35:51;;;;;;;8.63;6.65;;;;;;;-2.54;81.42;98369.64;1739047;81;20996;-38
2022/12/13 05:38:17;;;;;;;7.37;6.07;;;;;;;-2.53;81.86;98371.77;1739479;82;20972;-37
2022/12/13 05:40:43;;;;;;;8.45;6.00;;;;;;;-2.57;81.79;98372.27;1739238;82;21031;-37
2022/12/13 05:43:12;;;;;;;11.00;6.42;;;;;;;-2.66;81.82;98363.86;1743929;81;21024;-36
2022/12/13 05:45:38;;;;;;;8.80;6.45;;;;;;;-2.67;82.46;98367.30;1746962;82;20960;-37
2022/12/13 05:48:04;;;;;;;10.38;6.70;;;;;;;-2.75;82.60;98361.87;1746953;82;20999;-38
2022/12/13 05:50:29;;;;;;;11.00;6.92;;;;;;;-2.72;82.55;98365.66;1746937;81;21006;-39
2022/12/13 05:52:55;;;;;;;14.23;6.92;;;;;;;-2.74;82.80;98368.70;1746956;82;20999;-38
2022/12/13 05:55:21;;;;;;;8.48;6.33;;;;;;;-2.71;82.51;98372.52;1746960;82;21050;-40
2022/12/13 05:57:47;;;;;;;9.55;6.90;;;;;;;-2.73;82.48;98369.13;1746892;82;21027;-38
2022/12/13 06:00:13;;;;;;;9.80;7.53;;;;;;;-2.70;82.29;98370.78;1738171;82;20987;-40
2022/12/13 06:02:42;;;;;;;9.40;7.10;;;;;;;-2.70;82.54;98374.20;1747124;82;21011;-38
2022/12/13 06:05:09;;;;;;;9.73;6.95;;;;;;;-2.70;82.54;98374.20;1746939;82;21685;-38
2022/12/13 06:07:35;;;;;;;;;;;;;;;-2.64;82.80;98382.70;1749547;82;20979;-37
2022/12/13 06:10:04;;;;;;;10.28;6.42;;;;;;;-2.64;82.62;98381.41;1746913;81;20098;-39
2022/12/13 06:12:31;;;;;;;12.98;7.58;;;;;;;-2.77;82.41;98373.88;1746902;81;21026;-41
2022/12/13 06:14:57;;;;;;;19.32;9.75;;;;;;;-2.77;82.41;98373.88;1746902;81;21003;-38
2022/12/13 06:17:24;;;;;;;13.70;8.38;;;;;;;-2.71;82.49;98385.38;1747035;82;21486;-39
2022/12/13 06:19:50;;;;;;;14.00;8.10;;;;;;;-2.81;82.27;98384.27;1747139;82;20994;-42
2022/12/13 06:22:17;;;;;;;10.23;7.00;;;;;;;-2.72;82.38;98383.67;1747138;82;21042;-40
2022/12/13 06:24:43;;;;;;;10.32;7.40;;;;;;;-2.69;82.04;98387.94;1746991;81;21268;-37
2022/12/13 06:27:09;;;;;;;8.83;6.17;;;;;;;-2.67;81.74;98386.59;1746888;82;20999;-40
2022/12/13 06:29:35;;;;;;;9.85;6.42;;;;;;;-2.66;81.93;98393.46;1747070;81;20968;-38
2022/12/13 06:32:02;;;;;;;10.40;6.53;;;;;;;-2.72;81.66;98395.70;1746985;82;21492;-47
2022/12/13 06:34:31;;;;;;;10.03;6.10;;;;;;;-2.73;81.82;98397.43;1747018;82;20975;-41
2022/12/13 06:36:57;;;;;;;9.18;6.40;;;;;;;-2.91;81.90;98405.41;1746243;82;21042;-35
2022/12/13 06:39:23;;;;;;;10.55;6.37;;;;;;;-2.92;81.87;98403.73;1746879;81;20999;-37
2022/12/13 06:41:49;;;;;;;8.23;5.97;;;;;;;-2.91;82.60;98405.41;1747009;82;20968;-41
2022/12/13 06:44:15;;;;;;;13.80;7.22;;;;;;;-2.86;82.54;98399.77;1739389;81;21544;-41
2022/12/13 06:46:41;;;;;;;15.43;8.23;;;;;;;-2.83;81.53;98398.89;1738806;82;21500;-40
2022/12/13 06:49:07;;;;;;;12.58;6.87;;;;;;;-2.77;81.83;98402.64;1738805;82;21477;-38
2022/12/13 06:51:33;;;;;;;11.48;6.20;;;;;;;-2.77;81.83;98402.64;1738763;82;21031;-41
2022/12/13 06:54:03;;;;;;;13.08;6.92;;;;;;;-2.73;81.84;98409.02;1738767;81;20983;-39
2022/12/13 06:56:30;;;;;;;10.63;7.25;;;;;;;-2.76;81.06;98410.34;1738933;81;21003;-36
2022/12/13 06:58:55;;;;;;;27.25;14.93;;;;;;;-2.76;80.79;98419.34;1738735;82;21027;-40
2022/12/13 07:01:21;;;;;;;20.02;12.50;;;;;;;-2.73;80.77;98410.30;1738863;81;21492;-38
2022/12/13 07:03:47;;;;;;;12.15;6.70;;;;;;;-2.70;80.39;98419.68;1738698;82;20999;-39
2022/12/13 07:06:18;;;;;;;14.20;8.25;;;;;;;-2.72;80.16;98414.55;1738717;82;21050;-42
2022/12/13 07:08:51;;;;;;;14.83;7.47;;;;;;;-2.65;79.74;98427.34;1737955;82;21563;-38
2022/12/13 07:11:20;;;;;;;13.72;7.70;;;;;;;-2.66;79.39;98426.92;1738772;82;20988;-41
2022/12/13 07:13:46;;;;;;;10.45;6.10;;;;;;;-2.66;79.39;98426.92;1738753;82;21007;-38
2022/12/13 07:16:12;;;;;;;7.17;5.35;;;;;;;-2.58;79.57;98434.09;1738858;81;21007;-36
2022/12/13 07:18:38;;;;;;;7.22;5.47;;;;;;;-2.59;79.31;98438.37;1738843;82;21445;-41
2022/12/13 07:21:10;;;;;;;9.33;5.83;;;;;;;-2.49;79.76;98441.66;1738902;82;21492;-37
2022/12/13 07:23:38;;;;;;;11.12;6.12;;;;;;;-2.76;79.46;98438.64;1738910;82;20964;-38
2022/12/13 07:26:06;;;;;;;10.60;6.78;;;;;;;-2.76;79.47;98445.08;1738877;82;21043;-40
2022/12/13 07:28:35;;;;;;;16.30;8.05;;;;;;;-2.71;79.44;98442.00;1738979;82;21175;-39
2022/12/13 07:31:04;;;;;;;13.68;8.05;;;;;;;-2.64;80.01;98450.91;1737937;82;20983;-39
2022/12/13 07:33:30;;;;;;;15.28;7.80;;;;;;;-2.61;80.01;98447.84;1738859;82;20968;-38
2022/12/13 07:36:10;;;;;;;8.45;5.55;;;;;;;-2.61;80.06;98454.28;1738876;82;21004;-38
2022/12/13 07:38:36;;;;;;;8.80;5.70;;;;;;;-2.62;80.08;98459.03;1738635;82;20999;-46
2022/12/13 07:41:04;;;;;;;9.08;5.80;;;;;;;-2.62;80.08;98459.03;1739123;82;21011;-40
2022/12/13 07:43:33;;;;;;;8.53;5.92;;;;;;;-2.51;80.27;98458.83;1742688;82;21433;-41
2022/12/13 07:46:02;;;;;;;9.20;6.40;;;;;;;-2.53;80.15;98452.86;1746991;82;21007;-38
2022/12/13 07:48:28;;;;;;;9.05;6.40;;;;;;;-2.48;79.84;98470.38;1747008;82;21050;-41
2022/12/13 07:51:05;;;;;;;10.43;6.30;;;;;;;-2.43;79.90;98468.59;1747040;81;20991;-40
2022/12/13 07:53:31;;;;;;;;;;;;;;;-2.36;79.88;98468.06;1749335;82;20988;-43
2022/12/13 07:56:03;;;;;;;11.93;6.90;;;;;;;-2.49;80.00;98464.84;1747014;81;20114;-37
2022/12/13 07:58:30;;;;;;;8.18;6.45;;;;;;;-2.48;80.19;98469.09;1747113;82;21042;-43
2022/12/13 08:01:06;;;;;;;11.83;7.42;;;;;;;-2.38;80.21;98467.23;1747033;82;21019;-41
2022/12/13 08:03:33;;;;;;;11.03;6.83;;;;;;;-2.43;80.01;98463.88;1747246;81;21038;-41
2022/12/13 08:06:08;;;;;;;8.83;6.45;;;;;;;-2.41;79.93;98464.26;1747117;82;21003;-41
2022/12/13 08:08:35;;;;;;;7.58;6.22;;;;;;;-2.40;79.73;98471.53;1747013;81;21477;-40
2022/12/13 08:11:09;;;;;;;9.18;5.83;;;;;;;-2.39;79.88;98470.67;1746982;81;21544;-43
2022/12/13 08:13:35;;;;;;;7.58;5.62;;;;;;;-2.41;79.36;98470.70;1746814;82;20956;-42
2022/12/13 08:16:05;;;;;;;10.40;6.20;;;;;;;-2.34;79.24;98474.88;1747146;82;20998;-44
2022/12/13 08:18:32;;;;;;;7.62;5.35;;;;;;;-2.35;79.46;98482.20;1747105;82;21175;-43
2022/12/13 08:21:00;;;;;;;9.17;5.57;;;;;;;-2.31;79.39;98475.25;1747262;82;21489;-42
2022/12/13 08:23:26;;;;;;;7.53;5.80;;;;;;;-2.33;79.24;98476.59;1746948;81;21003;-41
2022/12/13 08:25:53;;;;;;;13.87;5.93;;;;;;;-2.35;78.86;98480.91;1747188;81;21026;-41
2022/12/13 08:28:19;;;;;;;9.50;5.92;;;;;;;-2.37;78.85;98480.51;1747100;82;21430;-41
2022/12/13 08:30:46;;;;;;;11.35;6.62;;;;;;;-2.33;79.38;98483.44;1747051;81;21527;-43
2022/12/13 08:33:12;;;;;;;22.00;9.60;;;;;;;-2.37;78.66;98486.50;1746353;81;21015;-40
2022/12/13 08:35:38;;;;;;;16.87;8.88;;;;;;;-2.30;78.82;98487.70;1746958;82;20995;-43
2022/12/13 08:38:04;;;;;;;8.45;5.62;;;;;;;-2.21;78.92;98488.84;1769773;81;20967;-41
2022/12/13 08:40:30;;;;;;;9.68;6.10;;;;;;;-2.25;78.49;98489.33;1777620;80;20947;-41
2022/12/13 08:42:55;;;;;;;7.80;5.87;;;;;;;-2.23;78.19;98489.31;1776357;80;21158;-42
2022/12/13 08:45:23;;;;;;;11.90;7.28;;;;;;;-2.22;77.86;98492.28;1769321;81;20969;-44
2022/12/13 08:47:49;;;;;;;33.98;14.90;;;;;;;-2.26;77.85;98488.91;1769357;81;21460;-42
2022/12/13 08:50:15;;;;;;;10.63;6.85;;;;;;;-2.23;77.73;98498.32;1769159;81;21012;-43
2022/12/13 08:52:43;;;;;;;49.40;20.68;;;;;;;-2.24;77.41;98491.02;1769194;81;20984;-39
2022/12/13 08:55:13;;;;;;;8.80;6.28;;;;;;;-2.25;78.12;98500.92;1769163;80;20980;-42
2022/12/13 08:57:41;;;;;;;9.30;5.97;;;;;;;-2.28;77.86;98506.55;1769220;81;20980;-39
2022/12/13 09:00:12;;;;;;;9.63;6.15;;;;;;;-2.27;77.79;98514.27;1766516;81;20984;-38
2022/12/13 09:02:39;;;;;;;10.08;6.25;;;;;;;-2.17;77.64;98508.06;1769159;81;21020;-39
2022/12/13 09:05:07;;;;;;;12.13;6.78;;;;;;;-2.12;77.32;98498.98;1769147;80;20995;-40
2022/12/13 09:07:34;;;;;;;12.07;7.28;;;;;;;-2.05;77.62;98511.34;1769217;81;21031;-43
2022/12/13 09:10:00;;;;;;;;;;;;;;;-2.02;76.77;98510.84;1771929;81;21481;-40
2022/12/13 09:12:26;;;;;;;13.20;6.97;;;;;;;-1.97;76.72;98516.75;1768312;80;20148;-44
2022/12/13 09:14:52;;;;;;;9.43;6.20;;;;;;;-2.06;75.93;98514.77;1757667;81;20987;-40
2022/12/13 09:17:18;;;;;;;11.15;6.50;;;;;;;-1.93;77.28;98513.68;1767624;80;21034;-41
2022/12/13 09:19:43;;;;;;;12.18;6.90;;;;;;;-2.02;77.13;98517.29;1765969;81;21449;-41
2022/12/13 09:22:10;;;;;;;11.53;5.90;;;;;;;-2.02;77.17;98518.58;1766090;81;21504;-42
2022/12/13 09:24:36;;;;;;;12.20;7.37;;;;;;;-2.05;76.54;98509.60;1769413;80;21011;-40
2022/12/13 09:27:02;;;;;;;9.63;6.40;;;;;;;-1.97;76.72;98506.44;1769315;81;21012;-39
2022/12/13 09:29:28;;;;;;;12.35;6.75;;;;;;;-1.98;76.48;98517.64;1767643;81;20992;-43
2022/12/13 09:31:53;;;;;;;13.13;6.90;;;;;;;-1.95;76.29;98512.45;1769040;81;21004;-42
2022/12/13 09:34:19;;;;;;;9.68;6.42;;;;;;;-1.85;76.53;98511.84;1768762;81;21011;-45
2022/12/13 09:36:45;;;;;;;15.65;6.47;;;;;;;-1.95;76.35;98518.89;1768149;80;21707;-43
2022/12/13 09:39:11;;;;;;;11.03;7.28;;;;;;;-2.07;75.90;98513.94;1768848;80;21489;-44
2022/12/13 09:41:41;;;;;;;11.57;6.62;;;;;;;-2.04;76.50;98519.46;1768974;81;21012;-40
2022/12/13 09:44:26;;;;;;;11.18;6.75;;;;;;;-2.12;76.96;98509.30;1772965;81;21019;-38
2022/12/13 09:46:54;;;;;;;15.93;7.85;;;;;;;-2.13;76.96;98512.73;1776483;81;21031;-42
2022/12/13 09:49:31;;;;;;;15.25;7.85;;;;;;;-2.18;76.63;98519.71;1777497;80;21519;-40
2022/12/13 09:52:01;;;;;;;12.47;7.10;;;;;;;-2.19;76.98;98517.55;1776885;80;21457;-42
2022/12/13 09:54:27;;;;;;;11.83;6.62;;;;;;;-2.18;77.01;98523.13;1777400;81;21011;-42
2022/12/13 09:56:55;;;;;;;12.78;7.72;;;;;;;-2.06;76.97;98519.93;1777465;80;20984;-43
2022/12/13 09:59:33;;;;;;;11.85;7.78;;;;;;;-2.14;77.22;98522.64;1777248;81;20959;-42
2022/12/13 10:02:17;;;;;;;11.73;6.60;;;;;;;-2.11;77.03;98517.45;1777362;80;20989;-40
2022/12/13 10:04:43;;;;;;;11.53;7.22;;;;;;;-2.13;76.69;98517.88;1777412;81;20967;-41
2022/12/13 10:09:57;;;;;;;14.93;7.85;;;;;;;-1.94;76.88;98514.58;1801021;79;23557;-42
2022/12/13 10:12:23;;;;;;;13.28;7.87;;;;;;;-1.95;76.63;98511.16;1761405;81;21030;-41
2022/12/13 10:14:54;;;;;;;21.48;9.20;;;;;;;-1.85;76.72;98509.70;1761428;81;21532;-41
2022/12/13 10:17:23;;;;;;;20.00;8.83;;;;;;;-1.88;76.51;98509.30;1761475;81;20987;-38
2022/12/13 10:19:50;;;;;;;22.37;11.28;;;;;;;-1.88;76.33;98520.05;1761467;80;20980;-44
2022/12/13 10:22:19;;;;;;;14.25;8.43;;;;;;;-1.86;76.84;98510.56;1761489;81;20959;-42
2022/12/13 10:24:55;;;;;;;15.30;8.30;;;;;;;-1.89;76.77;98511.90;1761475;80;21494;-37
2022/12/13 10:27:39;;;;;;;13.37;9.60;;;;;;;-1.83;76.97;98511.81;1761734;81;20984;-46
2022/12/13 10:30:09;;;;;;;15.32;8.90;;;;;;;-1.77;76.60;98510.40;1761491;81;21456;-40
2022/12/13 10:33:00;;;;;;;12.90;9.20;;;;;;;-1.83;76.87;98510.52;1761568;81;20968;-38
2022/12/13 10:35:35;;;;;;;18.05;9.80;;;;;;;-1.83;77.52;98509.23;1761587;81;20952;-42
2022/12/13 10:38:18;;;;;;;14.55;9.65;;;;;;;-1.91;77.19;98508.50;1760466;81;20991;-45
2022/12/13 10:40:45;;;;;;;16.85;9.50;;;;;;;-1.84;77.48;98507.52;1761317;81;20955;-40
2022/12/13 10:43:20;;;;;;;14.68;8.95;;;;;;;-1.77;77.39;98511.69;1761701;80;20991;-41
2022/12/13 10:46:00;;;;;;;18.95;10.18;;;;;;;-1.86;76.94;98509.28;1761480;81;20999;-40
2022/12/13 10:48:48;;;;;;;15.85;9.50;;;;;;;-1.79;77.33;98507.00;1761431;81;21046;-41
2022/12/13 10:51:18;;;;;;;14.20;9.63;;;;;;;-1.84;77.27;98508.81;1761439;81;20984;-42
2022/12/13 10:53:53;;;;;;;16.80;10.08;;;;;;;-1.81;77.35;98513.47;1761565;81;20983;-41
2022/12/13 10:56:21;;;;;;;14.87;9.15;;;;;;;-1.79;77.33;98507.84;1755662;80;20963;-45
2022/12/13 10:58:51;;;;;;;15.23;9.20;;;;;;;-1.74;77.30;98502.17;1761577;81;20968;-40
2022/12/13 11:01:22;;;;;;;19.42;9.45;;;;;;;-1.89;77.04;98500.30;1742209;81;21123;-43
2022/12/13 11:04:08;;;;;;;16.93;10.18;;;;;;;-1.88;77.33;98497.70;1761373;81;21457;-40
2022/12/13 11:06:43;;;;;;;18.55;10.03;;;;;;;-1.80;77.49;98501.42;1759540;81;21485;-44
2022/12/13 11:09:25;;;;;;;22.73;11.85;;;;;;;-1.85;78.19;98496.81;1752091;81;21031;-43
2022/12/13 11:11:52;;;;;;;21.07;11.73;;;;;;;-1.89;77.74;98495.15;1746084;82;21461;-41
2022/12/13 11:14:23;;;;;;;20.02;10.35;;;;;;;-2.00;77.49;98492.34;1746178;82;21004;-39
2022/12/13 11:16:55;;;;;;;19.17;10.03;;;;;;;-1.94;77.40;98502.53;1745832;82;21076;-43
2022/12/13 11:19:29;;;;;;;18.87;9.38;;;;;;;-1.91;77.55;98498.20;1745816;82;21441;-40
2022/12/13 11:21:55;;;;;;;15.10;9.13;;;;;;;-1.97;77.23;98507.73;1743747;82;20975;-41
2022/12/13 11:24:26;;;;;;;20.62;10.35;;;;;;;-2.09;77.23;98496.38;1745137;82;20983;-38
2022/12/13 11:27:03;;;;;;;19.62;10.20;;;;;;;-2.04;77.56;98500.98;1745251;82;20964;-39
2022/12/13 11:29:55;;;;;;;15.03;8.68;;;;;;;-1.94;77.67;98498.66;1748499;81;20984;-40
2022/12/13 11:32:44;;;;;;;16.52;9.65;;;;;;;-1.89;76.96;98500.30;1704574;82;21039;-41
2022/12/13 11:35:37;;;;;;;20.30;13.03;;;;;;;-1.80;77.08;98496.27;1739341;81;20987;-42
2022/12/13 11:38:30;;;;;;;20.52;11.88;;;;;;;-1.75;76.93;98499.63;1744795;82;21480;-43
2022/12/13 11:41:18;;;;;;;18.67;11.18;;;;;;;-1.81;76.94;98507.48;1745656;82;20983;-39
2022/12/13 11:43:56;;;;;;;22.07;13.13;;;;;;;-1.77;76.71;98506.53;1745411;82;21007;-40
2022/12/13 11:46:50;;;;;;;22.50;12.00;;;;;;;-1.76;76.45;98510.83;1745477;82;20981;-44
2022/12/13 11:49:36;;;;;;;20.23;10.88;;;;;;;-1.78;76.43;98510.01;1745466;82;20984;-40
2022/12/13 11:52:28;;;;;;;18.20;11.38;;;;;;;-1.63;76.79;98509.71;1723769;81;20964;-39